sensor_id;sensor_type;location;lat;lon;timestamp;P1;durP1;ratioP1;P2;durP2;ratioP2
53710;SDS011;39605;52.704;6.752;2024-03-02T00:02:13;1.85;;;1.75;;
53710;SDS011;39605;52.704;6.752;2024-03-02T00:04:40;1.30;;;1.02;;
53710;SDS011;39605;52.704;6.752;2024-03-02T00:07:09;1.65;;;1.55;;
53710;SDS011;39605;52.704;6.752;2024-03-02T00:09:36;2.28;;;1.63;;
53710;SDS011;39605;52.704;6.752;2024-03-02T00:12:02;1.95;;;1.80;;
53710;SDS011;39605;52.704;6.752;2024-03-02T00:14:29;2.40;;;2.20;;
53710;SDS011;39605;52.704;6.752;2024-03-02T00:16:55;2.42;;;1.55;;
53710;SDS011;39605;52.704;6.752;2024-03-02T00:19:21;2.08;;;1.52;;
53710;SDS011;39605;52.704;6.752;2024-03-02T00:21:48;1.65;;;1.55;;
53710;SDS011;39605;52.704;6.752;2024-03-02T00:24:18;2.55;;;2.17;;
53710;SDS011;39605;52.704;6.752;2024-03-02T00:26:46;2.15;;;1.27;;
53710;SDS011;39605;52.704;6.752;2024-03-02T00:29:12;2.17;;;1.98;;
53710;SDS011;39605;52.704;6.752;2024-03-02T00:31:41;1.90;;;1.63;;
53710;SDS011;39605;52.704;6.752;2024-03-02T00:34:07;1.60;;;1.50;;
53710;SDS011;39605;52.704;6.752;2024-03-02T00:36:35;2.17;;;1.98;;
53710;SDS011;39605;52.704;6.752;2024-03-02T00:39:02;1.70;;;1.58;;
53710;SDS011;39605;52.704;6.752;2024-03-02T00:41:31;1.92;;;1.80;;
53710;SDS011;39605;52.704;6.752;2024-03-02T00:43:58;2.47;;;2.00;;
53710;SDS011;39605;52.704;6.752;2024-03-02T00:46:38;2.22;;;1.63;;
53710;SDS011;39605;52.704;6.752;2024-03-02T00:49:05;1.60;;;1.48;;
53710;SDS011;39605;52.704;6.752;2024-03-02T00:51:33;1.85;;;1.30;;
53710;SDS011;39605;52.704;6.752;2024-03-02T00:54:01;1.95;;;1.73;;
53710;SDS011;39605;52.704;6.752;2024-03-02T00:56:29;1.45;;;1.30;;
53710;SDS011;39605;52.704;6.752;2024-03-02T00:58:55;1.25;;;1.15;;
53710;SDS011;39605;52.704;6.752;2024-03-02T01:01:21;3.17;;;1.40;;
53710;SDS011;39605;52.704;6.752;2024-03-02T01:03:48;2.08;;;1.45;;
53710;SDS011;39605;52.704;6.752;2024-03-02T01:06:15;1.83;;;1.35;;
53710;SDS011;39605;52.704;6.752;2024-03-02T01:08:41;1.75;;;1.20;;
53710;SDS011;39605;52.704;6.752;2024-03-02T01:11:07;2.08;;;1.67;;
53710;SDS011;39605;52.704;6.752;2024-03-02T01:13:35;2.15;;;1.45;;
53710;SDS011;39605;52.704;6.752;2024-03-02T01:16:01;1.38;;;1.27;;
53710;SDS011;39605;52.704;6.752;2024-03-02T01:18:28;2.95;;;1.60;;
53710;SDS011;39605;52.704;6.752;2024-03-02T01:20:54;5.75;;;1.55;;
53710;SDS011;39605;52.704;6.752;2024-03-02T01:23:23;1.60;;;1.50;;
53710;SDS011;39605;52.704;6.752;2024-03-02T01:25:52;1.77;;;1.38;;
53710;SDS011;39605;52.704;6.752;2024-03-02T01:28:19;2.38;;;1.70;;
53710;SDS011;39605;52.704;6.752;2024-03-02T01:30:46;4.25;;;1.35;;
53710;SDS011;39605;52.704;6.752;2024-03-02T01:33:12;3.72;;;1.50;;
53710;SDS011;39605;52.704;6.752;2024-03-02T01:35:39;1.65;;;1.55;;
53710;SDS011;39605;52.704;6.752;2024-03-02T01:38:05;2.78;;;0.93;;
53710;SDS011;39605;52.704;6.752;2024-03-02T01:40:32;3.33;;;1.90;;
53710;SDS011;39605;52.704;6.752;2024-03-02T01:42:58;2.92;;;1.48;;
53710;SDS011;39605;52.704;6.752;2024-03-02T01:45:25;2.00;;;1.27;;
53710;SDS011;39605;52.704;6.752;2024-03-02T01:47:51;2.05;;;1.30;;
53710;SDS011;39605;52.704;6.752;2024-03-02T01:50:27;2.00;;;1.60;;
53710;SDS011;39605;52.704;6.752;2024-03-02T01:52:54;2.53;;;1.77;;
53710;SDS011;39605;52.704;6.752;2024-03-02T01:55:20;2.92;;;1.45;;
53710;SDS011;39605;52.704;6.752;2024-03-02T01:57:46;1.70;;;1.60;;
53710;SDS011;39605;52.704;6.752;2024-03-02T02:00:13;1.77;;;1.45;;
53710;SDS011;39605;52.704;6.752;2024-03-02T02:02:39;2.05;;;1.83;;
53710;SDS011;39605;52.704;6.752;2024-03-02T02:05:05;2.50;;;1.58;;
53710;SDS011;39605;52.704;6.752;2024-03-02T02:07:31;1.48;;;1.38;;
53710;SDS011;39605;52.704;6.752;2024-03-02T02:09:59;1.75;;;1.50;;
53710;SDS011;39605;52.704;6.752;2024-03-02T02:12:26;4.38;;;1.70;;
53710;SDS011;39605;52.704;6.752;2024-03-02T02:14:52;1.95;;;1.38;;
53710;SDS011;39605;52.704;6.752;2024-03-02T02:17:18;2.05;;;1.50;;
53710;SDS011;39605;52.704;6.752;2024-03-02T02:19:45;1.50;;;1.35;;
53710;SDS011;39605;52.704;6.752;2024-03-02T02:22:11;1.98;;;1.33;;
53710;SDS011;39605;52.704;6.752;2024-03-02T02:24:43;4.85;;;1.50;;
53710;SDS011;39605;52.704;6.752;2024-03-02T02:27:09;5.50;;;1.70;;
53710;SDS011;39605;52.704;6.752;2024-03-02T02:29:35;2.72;;;2.03;;
53710;SDS011;39605;52.704;6.752;2024-03-02T02:32:02;1.67;;;1.58;;
53710;SDS011;39605;52.704;6.752;2024-03-02T02:34:28;3.40;;;1.50;;
53710;SDS011;39605;52.704;6.752;2024-03-02T02:36:55;1.42;;;1.33;;
53710;SDS011;39605;52.704;6.752;2024-03-02T02:39:21;6.85;;;1.77;;
53710;SDS011;39605;52.704;6.752;2024-03-02T02:41:48;1.83;;;1.35;;
53710;SDS011;39605;52.704;6.752;2024-03-02T02:44:14;1.75;;;1.60;;
53710;SDS011;39605;52.704;6.752;2024-03-02T02:46:40;1.60;;;1.45;;
53710;SDS011;39605;52.704;6.752;2024-03-02T02:49:06;2.65;;;1.65;;
53710;SDS011;39605;52.704;6.752;2024-03-02T02:51:33;2.70;;;1.40;;
53710;SDS011;39605;52.704;6.752;2024-03-02T02:53:59;3.13;;;1.65;;
53710;SDS011;39605;52.704;6.752;2024-03-02T02:56:25;2.15;;;1.75;;
53710;SDS011;39605;52.704;6.752;2024-03-02T02:58:51;1.83;;;1.70;;
53710;SDS011;39605;52.704;6.752;2024-03-02T03:01:17;1.90;;;1.60;;
53710;SDS011;39605;52.704;6.752;2024-03-02T03:03:44;1.90;;;1.35;;
53710;SDS011;39605;52.704;6.752;2024-03-02T03:06:10;2.58;;;1.40;;
53710;SDS011;39605;52.704;6.752;2024-03-02T03:08:36;1.52;;;1.40;;
53710;SDS011;39605;52.704;6.752;2024-03-02T03:11:03;3.10;;;1.63;;
53710;SDS011;39605;52.704;6.752;2024-03-02T03:13:30;2.08;;;1.75;;
53710;SDS011;39605;52.704;6.752;2024-03-02T03:15:56;2.38;;;1.55;;
53710;SDS011;39605;52.704;6.752;2024-03-02T03:18:22;2.25;;;1.73;;
53710;SDS011;39605;52.704;6.752;2024-03-02T03:20:48;1.95;;;1.30;;
53710;SDS011;39605;52.704;6.752;2024-03-02T03:23:15;2.95;;;1.67;;
53710;SDS011;39605;52.704;6.752;2024-03-02T03:25:42;1.65;;;1.30;;
53710;SDS011;39605;52.704;6.752;2024-03-02T03:28:09;1.63;;;1.52;;
53710;SDS011;39605;52.704;6.752;2024-03-02T03:30:36;3.95;;;1.80;;
53710;SDS011;39605;52.704;6.752;2024-03-02T03:33:03;1.60;;;1.50;;
53710;SDS011;39605;52.704;6.752;2024-03-02T03:35:31;2.47;;;1.38;;
53710;SDS011;39605;52.704;6.752;2024-03-02T03:37:57;2.08;;;1.27;;
53710;SDS011;39605;52.704;6.752;2024-03-02T03:40:23;3.80;;;1.52;;
53710;SDS011;39605;52.704;6.752;2024-03-02T03:42:49;1.63;;;1.52;;
53710;SDS011;39605;52.704;6.752;2024-03-02T03:45:16;2.50;;;1.15;;
53710;SDS011;39605;52.704;6.752;2024-03-02T03:47:42;2.20;;;1.63;;
53710;SDS011;39605;52.704;6.752;2024-03-02T03:50:09;1.15;;;1.05;;
53710;SDS011;39605;52.704;6.752;2024-03-02T03:52:35;1.77;;;1.23;;
53710;SDS011;39605;52.704;6.752;2024-03-02T03:55:01;2.00;;;1.40;;
53710;SDS011;39605;52.704;6.752;2024-03-02T03:57:27;1.45;;;1.08;;
53710;SDS011;39605;52.704;6.752;2024-03-02T03:59:53;2.17;;;1.52;;
53710;SDS011;39605;52.704;6.752;2024-03-02T04:02:19;2.13;;;1.15;;
53710;SDS011;39605;52.704;6.752;2024-03-02T04:04:45;1.70;;;1.10;;
53710;SDS011;39605;52.704;6.752;2024-03-02T04:07:11;1.20;;;0.80;;
53710;SDS011;39605;52.704;6.752;2024-03-02T04:09:37;1.45;;;1.15;;
53710;SDS011;39605;52.704;6.752;2024-03-02T04:12:04;2.03;;;1.20;;
53710;SDS011;39605;52.704;6.752;2024-03-02T04:14:30;2.28;;;1.15;;
53710;SDS011;39605;52.704;6.752;2024-03-02T04:16:56;2.95;;;1.10;;
53710;SDS011;39605;52.704;6.752;2024-03-02T04:19:22;1.88;;;0.75;;
53710;SDS011;39605;52.704;6.752;2024-03-02T04:21:48;2.20;;;1.00;;
53710;SDS011;39605;52.704;6.752;2024-03-02T04:24:14;1.23;;;0.85;;
53710;SDS011;39605;52.704;6.752;2024-03-02T04:26:40;1.55;;;1.02;;
53710;SDS011;39605;52.704;6.752;2024-03-02T04:29:06;2.47;;;0.93;;
53710;SDS011;39605;52.704;6.752;2024-03-02T04:31:32;1.92;;;1.20;;
53710;SDS011;39605;52.704;6.752;2024-03-02T04:33:58;2.17;;;1.25;;
53710;SDS011;39605;52.704;6.752;2024-03-02T04:36:24;1.73;;;1.13;;
53710;SDS011;39605;52.704;6.752;2024-03-02T04:38:51;1.73;;;1.30;;
53710;SDS011;39605;52.704;6.752;2024-03-02T04:41:17;3.03;;;2.20;;
53710;SDS011;39605;52.704;6.752;2024-03-02T04:43:43;2.03;;;1.33;;
53710;SDS011;39605;52.704;6.752;2024-03-02T04:46:15;1.95;;;1.60;;
53710;SDS011;39605;52.704;6.752;2024-03-02T04:48:41;3.60;;;1.77;;
53710;SDS011;39605;52.704;6.752;2024-03-02T04:51:07;1.58;;;1.20;;
53710;SDS011;39605;52.704;6.752;2024-03-02T04:53:33;1.27;;;1.17;;
53710;SDS011;39605;52.704;6.752;2024-03-02T04:55:59;3.05;;;1.90;;
53710;SDS011;39605;52.704;6.752;2024-03-02T04:58:43;2.00;;;1.70;;
53710;SDS011;39605;52.704;6.752;2024-03-02T05:01:09;2.50;;;2.03;;
53710;SDS011;39605;52.704;6.752;2024-03-02T05:03:35;1.98;;;1.83;;
53710;SDS011;39605;52.704;6.752;2024-03-02T05:06:01;1.75;;;1.50;;
53710;SDS011;39605;52.704;6.752;2024-03-02T05:08:28;3.25;;;2.55;;
53710;SDS011;39605;52.704;6.752;2024-03-02T05:10:54;2.53;;;2.08;;
53710;SDS011;39605;52.704;6.752;2024-03-02T05:13:20;2.58;;;2.20;;
53710;SDS011;39605;52.704;6.752;2024-03-02T05:15:46;2.30;;;2.08;;
53710;SDS011;39605;52.704;6.752;2024-03-02T05:18:12;3.15;;;2.15;;
53710;SDS011;39605;52.704;6.752;2024-03-02T05:20:38;2.58;;;2.03;;
53710;SDS011;39605;52.704;6.752;2024-03-02T05:23:04;1.88;;;1.77;;
53710;SDS011;39605;52.704;6.752;2024-03-02T05:25:30;2.67;;;1.42;;
53710;SDS011;39605;52.704;6.752;2024-03-02T05:27:57;3.20;;;2.10;;
53710;SDS011;39605;52.704;6.752;2024-03-02T05:30:23;2.40;;;1.35;;
53710;SDS011;39605;52.704;6.752;2024-03-02T05:32:51;2.28;;;1.80;;
53710;SDS011;39605;52.704;6.752;2024-03-02T05:35:17;3.70;;;1.33;;
53710;SDS011;39605;52.704;6.752;2024-03-02T05:37:43;1.83;;;1.35;;
53710;SDS011;39605;52.704;6.752;2024-03-02T05:40:09;1.88;;;1.30;;
53710;SDS011;39605;52.704;6.752;2024-03-02T05:42:36;3.35;;;1.52;;
53710;SDS011;39605;52.704;6.752;2024-03-02T05:45:02;2.55;;;1.10;;
53710;SDS011;39605;52.704;6.752;2024-03-02T05:47:28;2.20;;;1.27;;
53710;SDS011;39605;52.704;6.752;2024-03-02T05:49:54;2.05;;;1.63;;
53710;SDS011;39605;52.704;6.752;2024-03-02T05:52:20;3.40;;;1.17;;
53710;SDS011;39605;52.704;6.752;2024-03-02T05:54:46;2.78;;;1.92;;
53710;SDS011;39605;52.704;6.752;2024-03-02T05:57:13;2.55;;;1.38;;
53710;SDS011;39605;52.704;6.752;2024-03-02T05:59:57;1.63;;;1.50;;
53710;SDS011;39605;52.704;6.752;2024-03-02T06:02:23;1.45;;;1.35;;
53710;SDS011;39605;52.704;6.752;2024-03-02T06:04:49;1.85;;;1.40;;
53710;SDS011;39605;52.704;6.752;2024-03-02T06:07:15;2.10;;;1.60;;
53710;SDS011;39605;52.704;6.752;2024-03-02T06:09:42;4.07;;;1.90;;
53710;SDS011;39605;52.704;6.752;2024-03-02T06:12:09;2.10;;;1.80;;
53710;SDS011;39605;52.704;6.752;2024-03-02T06:14:35;2.25;;;1.70;;
53710;SDS011;39605;52.704;6.752;2024-03-02T06:17:01;2.58;;;1.48;;
53710;SDS011;39605;52.704;6.752;2024-03-02T06:19:27;3.17;;;1.90;;
53710;SDS011;39605;52.704;6.752;2024-03-02T06:21:53;4.00;;;1.63;;
53710;SDS011;39605;52.704;6.752;2024-03-02T06:24:20;2.33;;;2.08;;
53710;SDS011;39605;52.704;6.752;2024-03-02T06:26:46;1.70;;;1.60;;
53710;SDS011;39605;52.704;6.752;2024-03-02T06:29:12;2.50;;;1.67;;
53710;SDS011;39605;52.704;6.752;2024-03-02T06:31:38;3.35;;;2.30;;
53710;SDS011;39605;52.704;6.752;2024-03-02T06:34:04;2.80;;;2.15;;
53710;SDS011;39605;52.704;6.752;2024-03-02T06:36:30;2.03;;;1.88;;
53710;SDS011;39605;52.704;6.752;2024-03-02T06:38:56;1.98;;;1.77;;
53710;SDS011;39605;52.704;6.752;2024-03-02T06:41:22;3.97;;;2.03;;
53710;SDS011;39605;52.704;6.752;2024-03-02T06:43:48;2.95;;;2.00;;
53710;SDS011;39605;52.704;6.752;2024-03-02T06:46:14;2.97;;;1.70;;
53710;SDS011;39605;52.704;6.752;2024-03-02T06:48:40;2.40;;;1.85;;
53710;SDS011;39605;52.704;6.752;2024-03-02T06:51:07;2.03;;;1.50;;
53710;SDS011;39605;52.704;6.752;2024-03-02T06:53:33;1.60;;;1.40;;
53710;SDS011;39605;52.704;6.752;2024-03-02T06:55:59;1.77;;;1.45;;
53710;SDS011;39605;52.704;6.752;2024-03-02T06:58:25;2.00;;;1.30;;
53710;SDS011;39605;52.704;6.752;2024-03-02T07:00:51;1.90;;;1.45;;
53710;SDS011;39605;52.704;6.752;2024-03-02T07:03:18;2.60;;;1.42;;
53710;SDS011;39605;52.704;6.752;2024-03-02T07:05:44;3.25;;;1.70;;
53710;SDS011;39605;52.704;6.752;2024-03-02T07:08:10;2.15;;;1.92;;
53710;SDS011;39605;52.704;6.752;2024-03-02T07:10:36;2.05;;;1.50;;
53710;SDS011;39605;52.704;6.752;2024-03-02T07:13:02;2.05;;;1.20;;
53710;SDS011;39605;52.704;6.752;2024-03-02T07:15:28;3.05;;;1.10;;
53710;SDS011;39605;52.704;6.752;2024-03-02T07:18:34;2.30;;;1.20;;
53710;SDS011;39605;52.704;6.752;2024-03-02T07:21:07;1.90;;;1.33;;
53710;SDS011;39605;52.704;6.752;2024-03-02T07:23:33;1.67;;;1.20;;
53710;SDS011;39605;52.704;6.752;2024-03-02T07:26:00;2.05;;;1.45;;
53710;SDS011;39605;52.704;6.752;2024-03-02T07:28:27;2.78;;;2.40;;
53710;SDS011;39605;52.704;6.752;2024-03-02T07:31:02;2.42;;;2.22;;
53710;SDS011;39605;52.704;6.752;2024-03-02T07:33:29;3.80;;;2.08;;
53710;SDS011;39605;52.704;6.752;2024-03-02T07:35:56;2.45;;;2.25;;
53710;SDS011;39605;52.704;6.752;2024-03-02T07:38:22;2.80;;;2.53;;
53710;SDS011;39605;52.704;6.752;2024-03-02T07:40:48;3.10;;;2.70;;
53710;SDS011;39605;52.704;6.752;2024-03-02T07:43:16;5.78;;;2.55;;
53710;SDS011;39605;52.704;6.752;2024-03-02T07:45:42;3.10;;;2.90;;
53710;SDS011;39605;52.704;6.752;2024-03-02T07:48:08;3.90;;;3.05;;
53710;SDS011;39605;52.704;6.752;2024-03-02T07:50:34;2.67;;;2.33;;
53710;SDS011;39605;52.704;6.752;2024-03-02T07:53:01;4.55;;;2.63;;
53710;SDS011;39605;52.704;6.752;2024-03-02T07:55:27;3.35;;;2.20;;
53710;SDS011;39605;52.704;6.752;2024-03-02T07:57:58;2.40;;;2.20;;
53710;SDS011;39605;52.704;6.752;2024-03-02T08:00:24;2.20;;;2.00;;
53710;SDS011;39605;52.704;6.752;2024-03-02T08:02:51;3.70;;;2.20;;
53710;SDS011;39605;52.704;6.752;2024-03-02T08:05:17;3.17;;;1.60;;
53710;SDS011;39605;52.704;6.752;2024-03-02T08:07:46;2.50;;;1.67;;
53710;SDS011;39605;52.704;6.752;2024-03-02T08:10:13;2.50;;;1.83;;
53710;SDS011;39605;52.704;6.752;2024-03-02T08:12:39;2.17;;;1.90;;
53710;SDS011;39605;52.704;6.752;2024-03-02T08:15:05;3.70;;;2.17;;
53710;SDS011;39605;52.704;6.752;2024-03-02T08:17:31;2.53;;;2.10;;
53710;SDS011;39605;52.704;6.752;2024-03-02T08:19:58;4.80;;;2.72;;
53710;SDS011;39605;52.704;6.752;2024-03-02T08:22:24;3.22;;;2.45;;
53710;SDS011;39605;52.704;6.752;2024-03-02T08:24:50;2.25;;;2.05;;
53710;SDS011;39605;52.704;6.752;2024-03-02T08:27:17;2.35;;;2.15;;
53710;SDS011;39605;52.704;6.752;2024-03-02T08:29:43;2.92;;;2.63;;
53710;SDS011;39605;52.704;6.752;2024-03-02T08:32:09;4.22;;;3.83;;
53710;SDS011;39605;52.704;6.752;2024-03-02T08:34:35;3.53;;;3.08;;
53710;SDS011;39605;52.704;6.752;2024-03-02T08:37:02;2.95;;;2.75;;
53710;SDS011;39605;52.704;6.752;2024-03-02T08:39:28;4.97;;;2.60;;
53710;SDS011;39605;52.704;6.752;2024-03-02T08:41:54;4.97;;;2.85;;
53710;SDS011;39605;52.704;6.752;2024-03-02T08:44:20;3.42;;;2.33;;
53710;SDS011;39605;52.704;6.752;2024-03-02T08:46:47;2.40;;;2.20;;
53710;SDS011;39605;52.704;6.752;2024-03-02T08:49:13;2.85;;;2.65;;
53710;SDS011;39605;52.704;6.752;2024-03-02T08:51:39;2.90;;;2.38;;
53710;SDS011;39605;52.704;6.752;2024-03-02T08:54:05;2.17;;;1.92;;
53710;SDS011;39605;52.704;6.752;2024-03-02T08:56:31;2.63;;;1.88;;
53710;SDS011;39605;52.704;6.752;2024-03-02T08:58:57;1.60;;;1.08;;
53710;SDS011;39605;52.704;6.752;2024-03-02T09:01:23;2.47;;;1.60;;
53710;SDS011;39605;52.704;6.752;2024-03-02T09:03:50;2.47;;;1.40;;
53710;SDS011;39605;52.704;6.752;2024-03-02T09:06:16;2.50;;;1.90;;
53710;SDS011;39605;52.704;6.752;2024-03-02T09:08:42;2.38;;;1.63;;
53710;SDS011;39605;52.704;6.752;2024-03-02T09:11:09;1.70;;;1.52;;
53710;SDS011;39605;52.704;6.752;2024-03-02T09:13:38;3.33;;;1.95;;
53710;SDS011;39605;52.704;6.752;2024-03-02T09:16:04;3.70;;;2.08;;
53710;SDS011;39605;52.704;6.752;2024-03-02T09:18:31;2.53;;;2.33;;
53710;SDS011;39605;52.704;6.752;2024-03-02T09:20:57;2.55;;;2.35;;
53710;SDS011;39605;52.704;6.752;2024-03-02T09:23:23;3.30;;;2.13;;
53710;SDS011;39605;52.704;6.752;2024-03-02T09:25:49;2.30;;;2.03;;
53710;SDS011;39605;52.704;6.752;2024-03-02T09:28:15;2.30;;;2.08;;
53710;SDS011;39605;52.704;6.752;2024-03-02T09:30:41;2.47;;;1.92;;
53710;SDS011;39605;52.704;6.752;2024-03-02T09:33:07;2.00;;;1.67;;
53710;SDS011;39605;52.704;6.752;2024-03-02T09:35:33;2.92;;;1.95;;
53710;SDS011;39605;52.704;6.752;2024-03-02T09:37:59;1.63;;;1.52;;
53710;SDS011;39605;52.704;6.752;2024-03-02T09:40:26;2.13;;;1.40;;
53710;SDS011;39605;52.704;6.752;2024-03-02T09:42:52;2.70;;;1.13;;
53710;SDS011;39605;52.704;6.752;2024-03-02T09:45:24;2.03;;;1.25;;
53710;SDS011;39605;52.704;6.752;2024-03-02T09:47:50;2.28;;;1.30;;
53710;SDS011;39605;52.704;6.752;2024-03-02T09:50:17;1.95;;;1.13;;
53710;SDS011;39605;52.704;6.752;2024-03-02T09:52:43;1.70;;;1.10;;
53710;SDS011;39605;52.704;6.752;2024-03-02T09:55:09;2.20;;;1.27;;
53710;SDS011;39605;52.704;6.752;2024-03-02T09:57:37;2.08;;;0.95;;
53710;SDS011;39605;52.704;6.752;2024-03-02T10:00:04;3.40;;;1.23;;
53710;SDS011;39605;52.704;6.752;2024-03-02T10:02:30;1.50;;;0.95;;
53710;SDS011;39605;52.704;6.752;2024-03-02T10:04:56;3.47;;;1.30;;
53710;SDS011;39605;52.704;6.752;2024-03-02T10:07:22;4.60;;;1.40;;
53710;SDS011;39605;52.704;6.752;2024-03-02T10:09:48;1.30;;;1.15;;
53710;SDS011;39605;52.704;6.752;2024-03-02T10:12:17;3.13;;;1.33;;
53710;SDS011;39605;52.704;6.752;2024-03-02T10:14:43;2.53;;;1.02;;
53710;SDS011;39605;52.704;6.752;2024-03-02T10:17:14;1.75;;;1.30;;
53710;SDS011;39605;52.704;6.752;2024-03-02T10:19:40;2.08;;;1.30;;
53710;SDS011;39605;52.704;6.752;2024-03-02T10:22:07;1.95;;;1.13;;
53710;SDS011;39605;52.704;6.752;2024-03-02T10:24:37;3.00;;;1.25;;
53710;SDS011;39605;52.704;6.752;2024-03-02T10:27:07;1.50;;;0.75;;
53710;SDS011;39605;52.704;6.752;2024-03-02T10:29:36;1.88;;;0.40;;
53710;SDS011;39605;52.704;6.752;2024-03-02T10:32:03;1.02;;;0.38;;
53710;SDS011;39605;52.704;6.752;2024-03-02T10:34:31;1.08;;;0.20;;
53710;SDS011;39605;52.704;6.752;2024-03-02T10:36:57;1.30;;;0.28;;
53710;SDS011;39605;52.704;6.752;2024-03-02T10:39:27;1.13;;;0.20;;
53710;SDS011;39605;52.704;6.752;2024-03-02T10:41:55;0.60;;;0.20;;
53710;SDS011;39605;52.704;6.752;2024-03-02T10:44:22;1.20;;;0.30;;
53710;SDS011;39605;52.704;6.752;2024-03-02T10:46:49;0.82;;;0.30;;
53710;SDS011;39605;52.704;6.752;2024-03-02T10:49:16;0.70;;;0.30;;
53710;SDS011;39605;52.704;6.752;2024-03-02T10:51:42;1.98;;;0.40;;
53710;SDS011;39605;52.704;6.752;2024-03-02T10:54:09;1.58;;;0.30;;
53710;SDS011;39605;52.704;6.752;2024-03-02T10:56:39;1.45;;;0.40;;
53710;SDS011;39605;52.704;6.752;2024-03-02T11:01:35;0.70;;;0.25;;
53710;SDS011;39605;52.704;6.752;2024-03-02T11:04:04;0.98;;;0.30;;
53710;SDS011;39605;52.704;6.752;2024-03-02T11:06:33;1.10;;;0.32;;
53710;SDS011;39605;52.704;6.752;2024-03-02T11:09:03;2.30;;;0.57;;
53710;SDS011;39605;52.704;6.752;2024-03-02T11:11:35;2.75;;;0.57;;
53710;SDS011;39605;52.704;6.752;2024-03-02T11:14:02;2.20;;;0.50;;
53710;SDS011;39605;52.704;6.752;2024-03-02T11:16:37;3.08;;;0.50;;
53710;SDS011;39605;52.704;6.752;2024-03-02T11:19:04;1.75;;;0.40;;
53710;SDS011;39605;52.704;6.752;2024-03-02T11:21:32;3.28;;;0.50;;
53710;SDS011;39605;52.704;6.752;2024-03-02T11:23:58;3.60;;;0.50;;
53710;SDS011;39605;52.704;6.752;2024-03-02T11:26:24;1.33;;;0.50;;
53710;SDS011;39605;52.704;6.752;2024-03-02T11:28:50;1.20;;;0.40;;
53710;SDS011;39605;52.704;6.752;2024-03-02T11:31:17;2.92;;;0.60;;
53710;SDS011;39605;52.704;6.752;2024-03-02T11:33:43;1.88;;;0.45;;
53710;SDS011;39605;52.704;6.752;2024-03-02T11:36:09;1.67;;;0.40;;
53710;SDS011;39605;52.704;6.752;2024-03-02T11:38:35;3.83;;;0.70;;
53710;SDS011;39605;52.704;6.752;2024-03-02T11:41:07;1.08;;;0.50;;
53710;SDS011;39605;52.704;6.752;2024-03-02T11:43:36;1.63;;;0.60;;
53710;SDS011;39605;52.704;6.752;2024-03-02T11:46:04;1.60;;;0.70;;
53710;SDS011;39605;52.704;6.752;2024-03-02T11:48:35;1.30;;;0.60;;
53710;SDS011;39605;52.704;6.752;2024-03-02T11:51:01;1.73;;;0.73;;
53710;SDS011;39605;52.704;6.752;2024-03-02T11:53:28;0.95;;;0.73;;
53710;SDS011;39605;52.704;6.752;2024-03-02T11:55:55;1.42;;;0.73;;
53710;SDS011;39605;52.704;6.752;2024-03-02T11:58:21;1.48;;;0.90;;
53710;SDS011;39605;52.704;6.752;2024-03-02T12:00:55;1.35;;;0.55;;
53710;SDS011;39605;52.704;6.752;2024-03-02T12:03:23;1.38;;;0.73;;
53710;SDS011;39605;52.704;6.752;2024-03-02T12:05:50;2.13;;;0.68;;
53710;SDS011;39605;52.704;6.752;2024-03-02T12:08:16;2.70;;;0.90;;
53710;SDS011;39605;52.704;6.752;2024-03-02T12:10:42;1.50;;;0.70;;
53710;SDS011;39605;52.704;6.752;2024-03-02T12:13:09;1.42;;;0.82;;
53710;SDS011;39605;52.704;6.752;2024-03-02T12:15:37;1.23;;;0.57;;
53710;SDS011;39605;52.704;6.752;2024-03-02T12:18:03;0.80;;;0.60;;
53710;SDS011;39605;52.704;6.752;2024-03-02T12:20:31;1.38;;;0.40;;
53710;SDS011;39605;52.704;6.752;2024-03-02T12:22:58;2.45;;;0.52;;
53710;SDS011;39605;52.704;6.752;2024-03-02T12:25:25;1.33;;;0.50;;
53710;SDS011;39605;52.704;6.752;2024-03-02T12:27:55;1.38;;;0.60;;
53710;SDS011;39605;52.704;6.752;2024-03-02T12:30:22;3.65;;;0.60;;
53710;SDS011;39605;52.704;6.752;2024-03-02T12:32:48;1.80;;;0.60;;
53710;SDS011;39605;52.704;6.752;2024-03-02T12:35:14;1.00;;;0.60;;
53710;SDS011;39605;52.704;6.752;2024-03-02T12:37:44;1.60;;;0.75;;
53710;SDS011;39605;52.704;6.752;2024-03-02T12:40:11;1.70;;;0.70;;
53710;SDS011;39605;52.704;6.752;2024-03-02T12:42:37;6.03;;;1.90;;
53710;SDS011;39605;52.704;6.752;2024-03-02T12:45:04;1.38;;;1.00;;
53710;SDS011;39605;52.704;6.752;2024-03-02T12:47:30;2.70;;;0.73;;
53710;SDS011;39605;52.704;6.752;2024-03-02T12:49:56;2.47;;;0.80;;
53710;SDS011;39605;52.704;6.752;2024-03-02T12:52:23;1.48;;;0.73;;
53710;SDS011;39605;52.704;6.752;2024-03-02T12:54:49;0.95;;;0.65;;
53710;SDS011;39605;52.704;6.752;2024-03-02T12:57:19;3.50;;;1.20;;
53710;SDS011;39605;52.704;6.752;2024-03-02T12:59:45;1.75;;;0.88;;
53710;SDS011;39605;52.704;6.752;2024-03-02T13:02:18;2.55;;;1.35;;
53710;SDS011;39605;52.704;6.752;2024-03-02T13:04:44;2.17;;;1.00;;
53710;SDS011;39605;52.704;6.752;2024-03-02T13:07:10;1.58;;;0.90;;
53710;SDS011;39605;52.704;6.752;2024-03-02T13:09:38;1.98;;;0.90;;
53710;SDS011;39605;52.704;6.752;2024-03-02T13:12:05;1.52;;;0.60;;
53710;SDS011;39605;52.704;6.752;2024-03-02T13:14:35;3.30;;;1.30;;
53710;SDS011;39605;52.704;6.752;2024-03-02T13:17:01;1.92;;;0.70;;
53710;SDS011;39605;52.704;6.752;2024-03-02T13:19:30;0.98;;;0.40;;
53710;SDS011;39605;52.704;6.752;2024-03-02T13:21:57;1.00;;;0.52;;
53710;SDS011;39605;52.704;6.752;2024-03-02T13:24:23;8.48;;;5.75;;
53710;SDS011;39605;52.704;6.752;2024-03-02T13:26:57;1.35;;;0.40;;
53710;SDS011;39605;52.704;6.752;2024-03-02T13:29:24;1.02;;;0.57;;
53710;SDS011;39605;52.704;6.752;2024-03-02T13:31:51;2.00;;;0.40;;
53710;SDS011;39605;52.704;6.752;2024-03-02T13:34:17;0.90;;;0.30;;
53710;SDS011;39605;52.704;6.752;2024-03-02T13:36:43;0.90;;;0.30;;
53710;SDS011;39605;52.704;6.752;2024-03-02T13:39:10;1.55;;;1.45;;
53710;SDS011;39605;52.704;6.752;2024-03-02T13:41:39;6.72;;;3.70;;
53710;SDS011;39605;52.704;6.752;2024-03-02T13:44:05;1.63;;;0.40;;
53710;SDS011;39605;52.704;6.752;2024-03-02T13:46:31;2.72;;;0.40;;
53710;SDS011;39605;52.704;6.752;2024-03-02T13:48:57;2.35;;;1.70;;
53710;SDS011;39605;52.704;6.752;2024-03-02T13:51:23;1.98;;;0.30;;
53710;SDS011;39605;52.704;6.752;2024-03-02T13:53:50;1.27;;;0.52;;
53710;SDS011;39605;52.704;6.752;2024-03-02T13:56:17;1.80;;;0.88;;
53710;SDS011;39605;52.704;6.752;2024-03-02T13:58:43;2.65;;;1.40;;
53710;SDS011;39605;52.704;6.752;2024-03-02T14:01:11;1.20;;;0.43;;
53710;SDS011;39605;52.704;6.752;2024-03-02T14:03:37;2.15;;;1.10;;
53710;SDS011;39605;52.704;6.752;2024-03-02T14:06:03;1.35;;;0.40;;
53710;SDS011;39605;52.704;6.752;2024-03-02T14:08:29;1.33;;;0.63;;
53710;SDS011;39605;52.704;6.752;2024-03-02T14:10:58;2.20;;;0.60;;
53710;SDS011;39605;52.704;6.752;2024-03-02T14:13:25;1.63;;;0.60;;
53710;SDS011;39605;52.704;6.752;2024-03-02T14:15:51;1.08;;;0.40;;
53710;SDS011;39605;52.704;6.752;2024-03-02T14:18:17;1.00;;;0.40;;
53710;SDS011;39605;52.704;6.752;2024-03-02T14:20:43;1.00;;;0.30;;
53710;SDS011;39605;52.704;6.752;2024-03-02T14:23:09;1.27;;;0.32;;
53710;SDS011;39605;52.704;6.752;2024-03-02T14:25:35;1.52;;;0.40;;
53710;SDS011;39605;52.704;6.752;2024-03-02T14:28:01;0.80;;;0.30;;
53710;SDS011;39605;52.704;6.752;2024-03-02T14:30:27;1.30;;;0.43;;
53710;SDS011;39605;52.704;6.752;2024-03-02T14:32:54;1.50;;;0.32;;
53710;SDS011;39605;52.704;6.752;2024-03-02T14:35:20;0.60;;;0.40;;
53710;SDS011;39605;52.704;6.752;2024-03-02T14:37:47;1.23;;;0.30;;
53710;SDS011;39605;52.704;6.752;2024-03-02T14:40:13;1.38;;;0.40;;
53710;SDS011;39605;52.704;6.752;2024-03-02T14:42:40;1.42;;;0.40;;
53710;SDS011;39605;52.704;6.752;2024-03-02T14:45:07;1.00;;;0.50;;
53710;SDS011;39605;52.704;6.752;2024-03-02T14:47:33;0.80;;;0.40;;
53710;SDS011;39605;52.704;6.752;2024-03-02T14:50:00;1.23;;;0.63;;